Time;durP1;ratioP1;P1;durP2;ratioP2;P2;SDS_P1;SDS_P2;PMS_P1;PMS_P2;Temp;Humidity;BMP_temperature;BMP_pressure;BME280_temperature;BME280_humidity;BME280_pressure;Samples;Min_cycle;Max_cycle;Signal;HPM_P1;HPM_P2
2023/11/17 00:01:37;;;;;;;0.57;0.45;;;2.30;99.90;;;;;;5002544;28;20107;-68
2023/11/17 00:04:03;;;;;;;1.17;0.63;;;2.30;99.90;;;;;;5003976;28;20049;-68
2023/11/17 00:06:29;;;;;;;1.17;0.70;;;2.20;99.90;;;;;;4998333;28;20053;-68
2023/11/17 00:08:55;;;;;;;0.98;0.55;;;2.20;99.90;;;;;;4998749;28;20067;-68
2023/11/17 00:11:21;;;;;;;2.97;1.23;;;2.20;99.90;;;;;;5037018;28;20052;-68
2023/11/17 00:13:50;;;;;;;1.35;0.80;;;2.20;99.90;;;;;;5029948;28;20097;-68
2023/11/17 00:16:19;;;;;;;0.63;0.63;;;2.20;99.90;;;;;;5035515;28;20034;-68
2023/11/17 00:18:45;;;;;;;1.55;1.00;;;2.20;99.90;;;;;;5001444;28;20276;-68
2023/11/17 00:21:13;;;;;;;1.83;0.32;;;2.20;99.90;;;;;;5034255;28;20133;-68
2023/11/17 00:23:38;;;;;;;0.40;0.40;;;2.10;99.90;;;;;;4998620;28;20057;-68
2023/11/17 00:26:04;;;;;;;1.90;0.73;;;2.10;99.90;;;;;;5037088;28;20037;-68
2023/11/17 00:28:39;;;;;;;0.50;0.40;;;2.10;99.90;;;;;;5000863;28;20114;-68
2023/11/17 00:31:06;;;;;;;0.90;0.63;;;2.10;99.90;;;;;;5004107;28;20042;-69
2023/11/17 00:33:32;;;;;;;0.85;0.65;;;2.10;99.90;;;;;;5021256;28;20057;-68
2023/11/17 00:35:57;;;;;;;1.13;0.88;;;2.10;99.90;;;;;;5032034;28;20046;-68
2023/11/17 00:38:23;;;;;;;0.45;0.38;;;2.10;99.90;;;;;;5002616;28;20022;-68
2023/11/17 00:40:49;;;;;;;0.80;0.55;;;2.00;99.90;;;;;;5007314;28;20038;-68
2023/11/17 00:43:15;;;;;;;0.50;0.45;;;2.00;99.90;;;;;;5000713;28;20514;-68
2023/11/17 00:45:40;;;;;;;0.93;0.68;;;2.00;99.90;;;;;;4988589;28;20069;-68
2023/11/17 00:48:06;;;;;;;1.55;0.85;;;2.00;99.90;;;;;;5002615;28;20046;-68
2023/11/17 00:50:32;;;;;;;0.70;0.70;;;2.00;99.90;;;;;;5030021;28;20054;-68
2023/11/17 00:53:05;;;;;;;1.85;0.40;;;2.00;99.90;;;;;;4999459;28;20113;-68
2023/11/17 00:55:31;;;;;;;1.00;0.65;;;2.00;99.90;;;;;;5001074;28;20470;-68
2023/11/17 00:57:58;;;;;;;0.90;0.77;;;2.00;99.90;;;;;;5004386;28;20050;-68
2023/11/17 01:00:24;;;;;;;1.08;0.60;;;2.00;99.90;;;;;;5011234;28;20050;-68
2023/11/17 01:02:50;;;;;;;0.60;0.45;;;1.90;99.90;;;;;;5001360;28;20180;-68
2023/11/17 01:05:18;;;;;;;0.98;0.40;;;1.90;99.90;;;;;;5002618;28;20070;-68
2023/11/17 01:07:44;;;;;;;0.60;0.45;;;2.00;99.90;;;;;;5004706;28;20113;-68
2023/11/17 01:10:12;;;;;;;0.77;0.40;;;2.00;99.90;;;;;;5028463;28;20124;-68
2023/11/17 01:12:38;;;;;;;0.95;0.70;;;2.00;99.90;;;;;;5008518;28;20098;-68
2023/11/17 01:15:04;;;;;;;2.22;1.00;;;2.00;99.90;;;;;;5002093;28;20463;-68
2023/11/17 01:17:30;;;;;;;0.77;0.63;;;2.00;99.90;;;;;;5008196;28;20038;-68
2023/11/17 01:19:56;;;;;;;1.38;1.00;;;2.00;99.90;;;;;;5037382;28;20038;-68
2023/11/17 01:22:22;;;;;;;4.60;1.20;;;2.00;99.90;;;;;;5019949;28;20056;-68
2023/11/17 01:24:47;;;;;;;1.00;0.90;;;2.00;99.90;;;;;;5003151;28;20038;-68
2023/11/17 01:27:13;;;;;;;1.88;1.13;;;2.00;99.90;;;;;;5036810;28;20049;-68
2023/11/17 01:29:39;;;;;;;1.05;0.70;;;2.00;99.90;;;;;;5000757;28;20049;-68
2023/11/17 01:32:05;;;;;;;0.52;0.20;;;1.90;99.90;;;;;;5001645;28;20046;-68
2023/11/17 01:34:31;;;;;;;0.95;0.50;;;1.90;99.90;;;;;;5003880;28;20053;-68
2023/11/17 01:36:57;;;;;;;0.55;0.52;;;1.90;99.90;;;;;;5034561;28;20109;-68
2023/11/17 01:39:22;;;;;;;0.75;0.28;;;1.90;99.90;;;;;;4999734;28;20042;-68
2023/11/17 01:41:48;;;;;;;3.20;1.25;;;1.90;99.90;;;;;;5003380;28;20466;-68
2023/11/17 01:44:14;;;;;;;0.98;0.70;;;1.90;99.90;;;;;;5003921;28;20030;-68
2023/11/17 01:46:40;;;;;;;1.60;0.82;;;1.90;99.90;;;;;;5006144;28;20482;-68
2023/11/17 01:49:08;;;;;;;1.08;0.73;;;1.90;99.90;;;;;;4997156;28;20041;-68
2023/11/17 01:51:36;;;;;;;1.00;0.60;;;1.80;99.90;;;;;;4998313;28;20046;-68
2023/11/17 01:54:03;;;;;;;1.08;0.50;;;1.90;99.90;;;;;;5006961;28;20038;-68
2023/11/17 01:56:30;;;;;;;0.45;0.32;;;1.90;99.90;;;;;;4998507;28;20353;-68
2023/11/17 01:58:56;;;;;;;0.47;0.47;;;1.90;99.90;;;;;;5007945;28;20045;-68
2023/11/17 02:01:23;;;;;;;0.45;0.40;;;1.90;99.90;;;;;;4999821;28;21540;-68
2023/11/17 02:03:51;;;;;;;1.17;0.98;;;1.80;99.90;;;;;;5005682;28;20517;-68
2023/11/17 02:06:56;;;;;;;0.88;0.50;;;1.80;99.90;;;;;;5031884;28;20529;-68
2023/11/17 02:09:50;;;;;;;3.00;0.70;;;1.80;99.90;;;;;;5001306;28;20050;-68
2023/11/17 02:12:46;;;;;;;1.00;0.75;;;1.80;99.90;;;;;;5006691;28;20069;-68
2023/11/17 02:15:17;;;;;;;1.63;0.90;;;1.80;99.90;;;;;;4996665;28;20487;-68
2023/11/17 02:17:49;;;;;;;1.02;0.70;;;1.90;99.90;;;;;;5005905;28;20034;-68
2023/11/17 02:20:20;;;;;;;0.68;0.57;;;1.80;99.90;;;;;;5007011;28;20061;-68
2023/11/17 02:22:51;;;;;;;0.93;0.85;;;1.80;99.90;;;;;;5036507;28;20401;-68
2023/11/17 02:25:37;;;;;;;1.48;0.80;;;1.80;99.90;;;;;;5004126;28;20034;-68
2023/11/17 02:28:21;;;;;;;0.93;0.70;;;1.80;99.90;;;;;;5019916;28;20406;-68
2023/11/17 02:30:55;;;;;;;0.70;0.52;;;1.70;99.90;;;;;;5007147;28;20042;-68
2023/11/17 02:33:32;;;;;;;1.17;0.77;;;1.80;99.90;;;;;;4999869;28;20081;-68
2023/11/17 02:36:03;;;;;;;1.15;0.93;;;1.70;99.90;;;;;;5001500;28;20050;-68
2023/11/17 02:38:29;;;;;;;11.68;1.05;;;1.80;99.90;;;;;;5002764;28;20085;-68
2023/11/17 02:40:55;;;;;;;0.73;0.55;;;1.70;99.90;;;;;;5006416;28;20154;-68
2023/11/17 02:43:29;;;;;;;0.43;0.43;;;1.70;99.90;;;;;;5037379;28;20038;-68
2023/11/17 02:45:55;;;;;;;0.50;0.35;;;1.70;99.90;;;;;;5006238;28;20033;-68
2023/11/17 02:48:22;;;;;;;0.70;0.45;;;1.60;99.90;;;;;;5004095;28;20092;-68
2023/11/17 02:51:18;;;;;;;0.32;0.30;;;1.60;99.90;;;;;;5004878;28;20398;-68
2023/11/17 02:53:49;;;;;;;0.50;0.40;;;1.60;99.90;;;;;;5011519;28;20401;-68
2023/11/17 02:56:19;;;;;;;0.73;0.73;;;1.50;99.90;;;;;;5004196;28;20038;-67
2023/11/17 02:58:46;;;;;;;1.05;0.60;;;1.50;99.90;;;;;;5002217;28;20057;-68
2023/11/17 03:01:15;;;;;;;2.38;0.43;;;1.60;99.90;;;;;;5019772;28;20086;-68
2023/11/17 03:03:43;;;;;;;0.77;0.45;;;1.50;99.90;;;;;;4996601;28;20133;-68
2023/11/17 03:06:09;;;;;;;1.05;0.55;;;1.50;99.90;;;;;;5006724;28;20065;-68
2023/11/17 03:08:35;;;;;;;1.77;0.40;;;1.50;99.90;;;;;;5002722;28;20467;-67
2023/11/17 03:11:02;;;;;;;0.22;0.22;;;1.50;99.90;;;;;;5033998;28;20446;-68
2023/11/17 03:13:30;;;;;;;1.25;0.90;;;1.40;99.90;;;;;;5000382;28;20125;-68
2023/11/17 03:15:58;;;;;;;1.48;0.50;;;1.40;99.90;;;;;;5003745;28;20034;-67
2023/11/17 03:18:26;;;;;;;1.40;0.75;;;1.40;99.90;;;;;;5003726;28;20239;-68
2023/11/17 03:20:56;;;;;;;0.80;0.40;;;1.40;99.90;;;;;;5003874;28;20626;-68
2023/11/17 03:23:22;;;;;;;0.35;0.35;;;1.40;99.90;;;;;;5001224;28;20040;-68
2023/11/17 03:25:52;;;;;;;0.75;0.70;;;1.30;99.90;;;;;;5005255;28;20125;-68
2023/11/17 03:28:18;;;;;;;0.55;0.40;;;1.30;99.90;;;;;;5007078;28;20179;-68
2023/11/17 03:30:44;;;;;;;0.60;0.43;;;1.30;99.90;;;;;;5052756;28;20095;-68
2023/11/17 03:33:11;;;;;;;0.28;0.28;;;1.30;99.90;;;;;;4997360;28;20453;-68
2023/11/17 03:35:40;;;;;;;0.43;0.43;;;1.30;99.90;;;;;;5010205;28;20038;-68
2023/11/17 03:38:08;;;;;;;0.63;0.57;;;1.30;99.90;;;;;;5010809;28;20046;-68
2023/11/17 03:40:36;;;;;;;0.88;0.63;;;1.30;99.90;;;;;;5036661;28;20349;-68
2023/11/17 03:43:02;;;;;;;0.50;0.40;;;1.30;99.90;;;;;;5034650;28;20077;-68
2023/11/17 03:45:27;;;;;;;2.17;0.98;;;1.20;99.90;;;;;;4999132;28;20084;-68
2023/11/17 03:47:54;;;;;;;5.28;1.30;;;1.20;99.90;;;;;;5008276;28;20037;-68
2023/11/17 03:50:20;;;;;;;0.47;0.38;;;1.20;99.90;;;;;;5001078;28;20043;-68
2023/11/17 03:52:46;;;;;;;0.75;0.75;;;1.20;99.90;;;;;;5002475;28;20049;-68
2023/11/17 03:55:12;;;;;;;0.52;0.32;;;1.20;99.90;;;;;;5054345;28;20042;-67
2023/11/17 03:57:38;;;;;;;2.00;1.00;;;1.20;99.90;;;;;;5036712;28;20111;-68
2023/11/17 04:00:05;;;;;;;0.73;0.43;;;1.20;99.90;;;;;;5039266;28;20060;-67
2023/11/17 04:02:34;;;;;;;0.30;0.30;;;1.20;99.90;;;;;;4996028;28;20402;-67
2023/11/17 04:05:03;;;;;;;0.80;0.50;;;1.20;99.90;;;;;;5004048;28;20069;-68
2023/11/17 04:07:29;;;;;;;0.50;0.47;;;1.20;99.90;;;;;;5007803;28;20133;-68
2023/11/17 04:09:55;;;;;;;2.38;0.55;;;1.10;99.90;;;;;;5006299;28;20069;-68
2023/11/17 04:12:21;;;;;;;0.35;0.35;;;1.10;99.90;;;;;;5000650;28;20151;-67
2023/11/17 04:14:46;;;;;;;0.30;0.20;;;1.10;99.90;;;;;;5000244;28;20472;-68
2023/11/17 04:17:13;;;;;;;0.85;0.50;;;1.10;99.90;;;;;;5004687;28;20096;-67
2023/11/17 04:19:40;;;;;;;0.52;0.43;;;1.10;99.90;;;;;;5002691;28;20512;-67
2023/11/17 04:22:07;;;;;;;0.47;0.35;;;1.10;99.90;;;;;;5007835;28;20053;-67
2023/11/17 04:24:33;;;;;;;1.33;0.75;;;1.10;99.90;;;;;;5002183;28;20449;-67
2023/11/17 04:26:59;;;;;;;0.30;0.20;;;1.00;99.90;;;;;;5005289;28;20057;-67
2023/11/17 04:29:25;;;;;;;0.55;0.50;;;1.00;99.90;;;;;;5038010;28;20448;-67
2023/11/17 04:31:54;;;;;;;0.30;0.22;;;1.10;99.90;;;;;;4997528;28;20030;-67
2023/11/17 04:34:21;;;;;;;0.45;0.45;;;1.10;99.90;;;;;;5001445;28;20054;-67
2023/11/17 04:36:47;;;;;;;0.52;0.40;;;1.00;99.90;;;;;;5005884;28;20038;-67
2023/11/17 04:39:17;;;;;;;0.30;0.20;;;1.00;99.90;;;;;;4997982;28;20429;-67
2023/11/17 04:41:48;;;;;;;0.47;0.45;;;1.00;99.90;;;;;;5030903;28;20560;-67
2023/11/17 04:44:14;;;;;;;1.00;0.65;;;1.00;99.90;;;;;;5005205;28;20038;-67
2023/11/17 04:46:39;;;;;;;0.30;0.30;;;1.10;99.90;;;;;;4999568;28;20042;-67
2023/11/17 04:49:05;;;;;;;1.27;0.63;;;0.90;99.90;;;;;;5001270;28;20038;-67
2023/11/17 04:51:31;;;;;;;1.13;0.73;;;0.90;99.90;;;;;;5002620;28;20048;-67
2023/11/17 04:53:57;;;;;;;0.40;0.40;;;0.90;99.90;;;;;;5004427;28;20030;-67
2023/11/17 04:56:22;;;;;;;1.27;0.43;;;0.90;99.90;;;;;;5005490;28;20504;-67
2023/11/17 04:58:49;;;;;;;0.95;0.55;;;0.90;99.90;;;;;;5000058;28;20522;-67
2023/11/17 05:01:14;;;;;;;0.40;0.40;;;0.90;99.90;;;;;;5002872;28;20288;-67
2023/11/17 05:03:42;;;;;;;0.47;0.40;;;0.90;99.90;;;;;;5001994;28;20041;-67
2023/11/17 05:06:08;;;;;;;0.50;0.25;;;0.90;99.90;;;;;;5005180;28;20034;-67
2023/11/17 05:08:37;;;;;;;1.17;0.82;;;0.80;99.90;;;;;;4997995;28;20046;-67
2023/11/17 05:11:05;;;;;;;3.15;0.85;;;0.80;99.90;;;;;;5006570;28;20332;-67
2023/11/17 05:13:31;;;;;;;1.20;0.63;;;0.80;99.90;;;;;;5002982;28;20453;-67
2023/11/17 05:15:57;;;;;;;0.55;0.40;;;0.80;99.90;;;;;;5000703;28;20044;-67
2023/11/17 05:18:22;;;;;;;0.95;0.60;;;0.80;99.90;;;;;;5004671;28;20050;-67
2023/11/17 05:20:48;;;;;;;1.45;0.70;;;0.80;99.90;;;;;;5006686;28;20045;-67
2023/11/17 05:23:16;;;;;;;1.17;0.70;;;0.80;99.90;;;;;;5003852;28;20065;-67
2023/11/17 05:25:43;;;;;;;0.50;0.50;;;0.70;99.90;;;;;;5002766;28;20037;-67
2023/11/17 05:28:09;;;;;;;1.10;0.73;;;0.70;99.90;;;;;;4996860;28;20069;-67
2023/11/17 05:30:36;;;;;;;2.33;0.70;;;0.70;99.90;;;;;;5005185;28;20446;-67
2023/11/17 05:33:03;;;;;;;0.50;0.40;;;0.70;99.90;;;;;;5032053;28;20049;-67
2023/11/17 05:35:28;;;;;;;0.98;0.63;;;0.70;99.90;;;;;;5003003;28;20084;-67
2023/11/17 05:37:54;;;;;;;0.25;0.25;;;0.70;99.90;;;;;;5002279;28;20046;-67
2023/11/17 05:40:20;;;;;;;0.65;0.57;;;0.70;99.90;;;;;;5035681;28;20538;-67
2023/11/17 05:42:45;;;;;;;0.75;0.22;;;0.70;99.90;;;;;;5034806;28;20490;-67
2023/11/17 05:45:12;;;;;;;1.40;0.68;;;0.70;99.90;;;;;;5003934;28;20064;-67
2023/11/17 05:47:39;;;;;;;1.00;0.80;;;0.70;99.90;;;;;;5003727;28;20431;-67
2023/11/17 05:50:07;;;;;;;0.57;0.55;;;0.70;99.90;;;;;;5007063;28;20042;-67
2023/11/17 05:52:34;;;;;;;0.70;0.30;;;0.70;99.90;;;;;;5008520;28;20114;-67
2023/11/17 05:55:03;;;;;;;0.77;0.65;;;0.70;99.90;;;;;;5018659;28;20038;-67
2023/11/17 05:57:29;;;;;;;0.55;0.55;;;0.70;99.90;;;;;;4999897;28;20058;-67
2023/11/17 05:59:57;;;;;;;0.60;0.60;;;0.70;99.90;;;;;;5039260;28;20056;-67
2023/11/17 06:02:23;;;;;;;2.30;1.02;;;0.60;99.90;;;;;;5009636;28;20171;-67
2023/11/17 06:04:49;;;;;;;1.70;1.33;;;0.60;99.90;;;;;;5031532;28;20061;-67
2023/11/17 06:07:15;;;;;;;1.52;0.75;;;0.60;99.90;;;;;;5005022;28;20053;-67
2023/11/17 06:09:43;;;;;;;1.85;0.82;;;0.70;99.90;;;;;;5006252;28;20030;-67
2023/11/17 06:12:09;;;;;;;0.77;0.52;;;0.70;99.90;;;;;;5007820;28;20085;-67
2023/11/17 06:14:35;;;;;;;0.52;0.52;;;0.70;99.90;;;;;;5000251;28;20132;-67
2023/11/17 06:17:06;;;;;;;1.25;0.88;;;0.70;99.90;;;;;;5036056;28;20046;-67
2023/11/17 06:19:33;;;;;;;1.95;1.02;;;0.70;99.90;;;;;;5036584;28;20221;-67
2023/11/17 06:21:59;;;;;;;1.05;0.93;;;0.70;99.90;;;;;;5006141;28;20104;-67
2023/11/17 06:24:25;;;;;;;0.77;0.60;;;0.70;99.90;;;;;;5036902;28;20406;-67
2023/11/17 06:26:51;;;;;;;1.35;1.08;;;0.60;99.90;;;;;;5004823;28;20033;-67
2023/11/17 06:29:22;;;;;;;0.47;0.43;;;0.70;99.90;;;;;;5005096;28;20050;-67
2023/11/17 06:31:49;;;;;;;4.03;1.00;;;0.60;99.90;;;;;;5005738;28;20045;-67
2023/11/17 06:34:15;;;;;;;1.05;0.82;;;0.70;99.90;;;;;;5002176;28;20038;-67
2023/11/17 06:36:41;;;;;;;1.30;0.90;;;0.70;99.90;;;;;;5005759;28;20441;-67
2023/11/17 06:39:14;;;;;;;0.95;0.80;;;0.70;99.90;;;;;;5006886;28;20395;-67
2023/11/17 06:41:50;;;;;;;1.15;0.55;;;0.70;99.90;;;;;;5003939;28;20049;-67
2023/11/17 06:44:18;;;;;;;1.25;1.05;;;0.70;99.90;;;;;;5007777;28;20440;-67
2023/11/17 06:46:48;;;;;;;3.00;0.95;;;0.70;99.90;;;;;;5008970;28;20127;-67
2023/11/17 06:49:15;;;;;;;1.42;1.33;;;0.60;99.90;;;;;;5009357;28;20042;-67
2023/11/17 06:51:43;;;;;;;1.17;1.08;;;0.70;99.90;;;;;;5011211;28;20148;-67
2023/11/17 06:54:13;;;;;;;1.25;0.80;;;0.70;99.90;;;;;;5004935;28;20037;-67
2023/11/17 06:56:48;;;;;;;2.47;1.65;;;0.70;99.90;;;;;;5007392;28;20046;-67
2023/11/17 06:59:28;;;;;;;2.92;1.63;;;0.70;99.90;;;;;;5044722;28;20045;-67
2023/11/17 07:01:53;;;;;;;3.00;0.57;;;0.80;99.90;;;;;;5012400;28;20045;-67
2023/11/17 07:04:21;;;;;;;0.98;0.75;;;0.70;99.90;;;;;;5008407;28;20489;-67
2023/11/17 07:06:47;;;;;;;1.73;1.63;;;0.80;99.90;;;;;;5006361;28;20504;-66
2023/11/17 07:09:16;;;;;;;1.90;1.33;;;0.80;99.90;;;;;;5037442;28;20124;-66
2023/11/17 07:11:46;;;;;;;1.65;1.02;;;0.80;99.90;;;;;;5036790;28;20042;-66
2023/11/17 07:14:12;;;;;;;0.98;0.88;;;0.80;99.90;;;;;;5006604;28;20069;-67
2023/11/17 07:16:41;;;;;;;1.95;1.17;;;0.80;99.90;;;;;;5039918;28;20486;-67
2023/11/17 07:19:08;;;;;;;0.75;0.75;;;0.80;99.90;;;;;;5004412;28;20045;-68
2023/11/17 07:21:37;;;;;;;1.85;1.48;;;0.80;99.90;;;;;;5011867;28;20042;-68
2023/11/17 07:24:07;;;;;;;2.10;1.63;;;0.90;99.90;;;;;;5046874;28;20041;-67
2023/11/17 07:26:33;;;;;;;1.52;1.42;;;0.90;99.90;;;;;;5002964;28;20125;-67
2023/11/17 07:29:02;;;;;;;1.65;0.93;;;1.00;99.90;;;;;;5034974;28;20072;-67
2023/11/17 07:31:29;;;;;;;0.77;0.70;;;1.00;99.90;;;;;;5002090;28;20274;-67
2023/11/17 07:33:55;;;;;;;1.77;1.25;;;1.00;99.90;;;;;;5034447;28;20073;-67
2023/11/17 07:36:22;;;;;;;1.50;1.25;;;1.10;99.90;;;;;;5038230;28;20395;-68
2023/11/17 07:38:51;;;;;;;5.28;2.53;;;1.10;99.90;;;;;;5012255;28;20037;-67
2023/11/17 07:41:20;;;;;;;1.48;1.15;;;1.10;99.90;;;;;;5007863;28;20041;-67
2023/11/17 07:43:47;;;;;;;1.23;1.08;;;1.20;99.90;;;;;;5003618;28;20414;-67
2023/11/17 07:46:13;;;;;;;3.53;1.88;;;1.20;99.90;;;;;;5005190;28;20029;-67
2023/11/17 07:48:45;;;;;;;1.63;0.85;;;1.30;99.90;;;;;;5005743;28;20425;-67
2023/11/17 07:51:14;;;;;;;1.95;1.30;;;1.40;99.90;;;;;;5001668;28;20348;-67
2023/11/17 07:53:39;;;;;;;1.70;1.38;;;1.40;99.90;;;;;;5005963;28;20038;-67
2023/11/17 07:56:06;;;;;;;0.73;0.68;;;1.50;99.90;;;;;;5006102;28;20041;-67
2023/11/17 07:58:32;;;;;;;1.25;0.88;;;1.60;99.90;;;;;;5004983;28;20539;-67
2023/11/17 08:01:01;;;;;;;2.13;1.42;;;1.60;99.90;;;;;;5007199;28;20069;-67
2023/11/17 08:03:26;;;;;;;1.73;1.25;;;1.70;99.90;;;;;;5004831;28;20406;-67
2023/11/17 08:05:53;;;;;;;1.63;1.10;;;1.70;99.90;;;;;;5010623;28;20041;-67
2023/11/17 08:08:18;;;;;;;2.50;1.45;;;1.80;99.90;;;;;;4999615;28;20132;-67
2023/11/17 08:10:46;;;;;;;2.05;1.27;;;1.90;99.90;;;;;;5041383;28;20513;-67
2023/11/17 08:13:12;;;;;;;2.65;1.88;;;2.00;99.90;;;;;;5008487;28;20061;-67
2023/11/17 08:15:38;;;;;;;1.73;1.02;;;2.00;99.90;;;;;;5013964;28;20608;-67
2023/11/17 08:18:04;;;;;;;1.30;0.80;;;2.10;99.90;;;;;;5008267;28;20084;-67
2023/11/17 08:20:32;;;;;;;2.67;1.55;;;2.20;99.90;;;;;;5033335;28;20284;-67
2023/11/17 08:23:01;;;;;;;1.48;1.17;;;2.40;99.90;;;;;;5007814;28;20132;-67
2023/11/17 08:25:27;;;;;;;3.65;1.80;;;2.60;99.90;;;;;;5009917;28;20048;-67
2023/11/17 08:27:53;;;;;;;3.92;1.83;;;2.90;99.90;;;;;;5002297;28;20049;-67
2023/11/17 08:30:19;;;;;;;2.78;1.73;;;3.60;99.90;;;;;;4999034;28;20593;-67
2023/11/17 08:32:44;;;;;;;2.10;1.83;;;4.60;99.90;;;;;;5004987;28;20137;-67
2023/11/17 08:35:11;;;;;;;4.97;2.08;;;5.70;99.90;;;;;;5034178;28;20046;-67
2023/11/17 08:37:37;;;;;;;3.05;2.17;;;6.20;99.90;;;;;;5002845;28;20065;-67
2023/11/17 08:40:10;;;;;;;4.45;2.22;;;7.00;99.90;;;;;;4998917;28;20121;-67
2023/11/17 08:42:39;;;;;;;5.25;2.95;;;8.10;99.90;;;;;;5007864;28;20427;-67
2023/11/17 08:45:09;;;;;;;5.25;3.05;;;9.30;99.90;;;;;;5008145;28;20503;-67
2023/11/17 08:47:37;;;;;;;4.25;2.40;;;9.90;99.90;;;;;;4998385;28;20037;-67
2023/11/17 08:50:04;;;;;;;3.03;1.98;;;9.40;99.90;;;;;;5000948;28;20038;-67
2023/11/17 08:52:34;;;;;;;4.55;2.00;;;9.10;99.90;;;;;;5011380;28;21002;-67
2023/11/17 08:55:04;;;;;;;7.05;3.25;;;9.70;99.90;;;;;;5010190;28;20397;-67
2023/11/17 08:57:32;;;;;;;11.63;2.70;;;10.70;99.90;;;;;;4998904;28;20050;-68
2023/11/17 08:59:59;;;;;;;7.63;2.72;;;11.70;99.90;;;;;;5039267;28;20048;-68
2023/11/17 09:02:29;;;;;;;2.47;1.30;;;12.50;99.90;;;;;;5036107;28;20403;-68
2023/11/17 09:04:55;;;;;;;3.85;1.70;;;13.30;99.90;;;;;;5000957;28;20123;-68
2023/11/17 09:07:22;;;;;;;2.38;1.80;;;13.90;99.90;;;;;;4999893;28;20034;-68
2023/11/17 09:09:47;;;;;;;2.47;1.20;;;14.40;99.90;;;;;;5005097;28;20034;-68
2023/11/17 09:12:17;;;;;;;4.00;1.48;;;14.60;99.90;;;;;;5009920;28;20092;-68
2023/11/17 09:14:43;;;;;;;2.45;1.27;;;13.90;99.90;;;;;;5037132;28;20054;-68
2023/11/17 09:17:09;;;;;;;3.78;1.60;;;13.70;99.90;;;;;;5000671;28;20118;-68
2023/11/17 09:19:36;;;;;;;1.77;1.17;;;13.40;99.90;;;;;;5009731;28;20256;-68
2023/11/17 09:22:04;;;;;;;1.65;0.70;;;12.70;99.90;;;;;;5010963;28;20050;-68
2023/11/17 09:24:30;;;;;;;1.95;0.95;;;11.80;99.90;;;;;;5003020;28;20046;-68
2023/11/17 09:26:57;;;;;;;1.58;1.38;;;10.90;99.90;;;;;;5006785;28;20041;-68
2023/11/17 09:29:23;;;;;;;1.70;0.85;;;10.40;99.90;;;;;;5008968;28;20113;-68
2023/11/17 09:31:50;;;;;;;2.08;1.17;;;10.00;99.90;;;;;;5043012;28;20068;-68
2023/11/17 09:34:16;;;;;;;1.63;1.10;;;9.80;99.90;;;;;;5008362;28;20044;-68
2023/11/17 09:36:42;;;;;;;3.38;1.38;;;9.80;99.90;;;;;;5039343;28;20041;-68
2023/11/17 09:39:09;;;;;;;3.28;1.27;;;9.80;99.90;;;;;;5012482;28;20045;-68
2023/11/17 09:41:38;;;;;;;5.18;1.55;;;10.00;99.90;;;;;;5008626;28;20080;-68
2023/11/17 09:44:08;;;;;;;2.42;1.58;;;10.70;99.90;;;;;;5011155;28;20058;-68
2023/11/17 09:46:46;;;;;;;5.15;1.70;;;11.90;99.90;;;;;;5002652;28;20042;-69
2023/11/17 09:49:14;;;;;;;2.97;1.17;;;12.80;99.90;;;;;;5011074;28;20103;-69
2023/11/17 09:51:42;;;;;;;2.92;1.52;;;13.30;99.90;;;;;;5011087;28;20045;-69
2023/11/17 09:54:13;;;;;;;1.70;1.20;;;13.10;99.90;;;;;;5033730;28;20377;-69
2023/11/17 09:56:42;;;;;;;1.75;1.00;;;12.40;99.90;;;;;;5010167;28;20398;-68
2023/11/17 09:59:09;;;;;;;2.63;1.33;;;11.60;99.90;;;;;;5007271;28;20045;-69
2023/11/17 10:01:36;;;;;;;2.03;1.17;;;10.90;99.90;;;;;;5009588;28;20045;-69
2023/11/17 10:04:05;;;;;;;2.83;1.63;;;10.30;99.90;;;;;;5007196;28;20095;-68
2023/11/17 10:06:33;;;;;;;2.10;1.15;;;9.80;99.90;;;;;;5009059;28;20370;-68
2023/11/17 10:09:01;;;;;;;2.13;1.10;;;9.40;99.90;;;;;;5006357;28;20506;-68
2023/11/17 10:11:27;;;;;;;1.63;1.20;;;9.10;99.90;;;;;;5004978;28;20093;-68
2023/11/17 10:13:56;;;;;;;1.75;1.08;;;8.80;99.90;;;;;;5007071;28;20245;-68
2023/11/17 10:16:23;;;;;;;3.08;1.05;;;8.50;99.90;;;;;;5006353;28;20572;-68
2023/11/17 10:18:50;;;;;;;1.42;0.80;;;8.30;99.90;;;;;;5009614;28;20081;-68
2023/11/17 10:21:19;;;;;;;3.42;1.40;;;8.20;99.90;;;;;;5041204;28;20049;-68
2023/11/17 10:23:46;;;;;;;1.25;1.00;;;8.00;99.90;;;;;;5009280;28;20477;-68
2023/11/17 10:26:12;;;;;;;0.88;0.65;;;7.90;99.90;;;;;;5001101;28;20073;-68
2023/11/17 10:28:38;;;;;;;1.75;1.13;;;7.80;99.90;;;;;;5007077;28;20045;-68
2023/11/17 10:31:06;;;;;;;1.15;0.68;;;7.70;99.90;;;;;;5009182;28;20030;-68
2023/11/17 10:33:42;;;;;;;3.08;1.13;;;7.70;99.90;;;;;;5004738;28;20042;-68
2023/11/17 10:36:10;;;;;;;1.83;1.20;;;7.60;99.90;;;;;;5010034;28;20034;-68
2023/11/17 10:38:38;;;;;;;2.65;1.00;;;7.60;99.90;;;;;;5003059;28;20529;-68
2023/11/17 10:41:14;;;;;;;1.65;1.15;;;7.50;99.90;;;;;;5000189;28;20053;-68
2023/11/17 10:43:48;;;;;;;1.45;0.80;;;7.40;99.90;;;;;;5005057;28;20160;-68
2023/11/17 10:46:14;;;;;;;1.63;0.82;;;7.40;99.90;;;;;;5003234;28;20042;-68
2023/11/17 10:48:42;;;;;;;1.42;0.85;;;7.40;99.90;;;;;;5031151;28;20042;-68
2023/11/17 10:51:11;;;;;;;4.00;0.80;;;7.30;99.90;;;;;;5006140;28;20410;-68
2023/11/17 10:53:36;;;;;;;1.23;0.70;;;7.30;99.90;;;;;;5005964;28;20046;-68
2023/11/17 10:56:04;;;;;;;1.55;0.80;;;7.30;99.90;;;;;;5006816;28;20148;-68
2023/11/17 10:58:29;;;;;;;0.98;0.73;;;7.30;99.90;;;;;;5036311;28;20131;-68
2023/11/17 11:00:58;;;;;;;0.52;0.30;;;7.30;99.90;;;;;;5007857;28;20054;-68
2023/11/17 11:03:24;;;;;;;0.98;0.47;;;7.20;99.90;;;;;;5036089;28;20495;-68
2023/11/17 11:05:56;;;;;;;0.40;0.22;;;7.30;99.90;;;;;;5004081;28;20045;-68
2023/11/17 11:08:22;;;;;;;0.80;0.70;;;7.30;99.90;;;;;;5004837;28;20030;-68
2023/11/17 11:10:55;;;;;;;2.75;0.55;;;7.30;99.90;;;;;;5031442;28;20035;-68
2023/11/17 11:13:30;;;;;;;0.88;0.35;;;7.30;99.90;;;;;;5009411;28;20349;-68
2023/11/17 11:16:06;;;;;;;1.85;0.70;;;7.30;99.90;;;;;;5006973;28;20034;-68
2023/11/17 11:18:46;;;;;;;1.33;0.82;;;7.30;99.90;;;;;;5033282;28;20053;-68
2023/11/17 11:21:17;;;;;;;3.42;0.73;;;7.30;99.90;;;;;;5009068;28;20039;-68
2023/11/17 11:23:45;;;;;;;8.82;0.65;;;7.30;99.90;;;;;;5033935;28;20117;-68
2023/11/17 11:26:13;;;;;;;1.67;1.00;;;7.30;99.90;;;;;;5001800;28;20042;-69
2023/11/17 11:28:41;;;;;;;2.83;0.88;;;7.30;99.90;;;;;;5000709;28;20061;-68
2023/11/17 11:31:12;;;;;;;1.15;0.88;;;7.30;99.90;;;;;;5004456;28;20083;-68
2023/11/17 11:33:39;;;;;;;1.17;0.60;;;7.30;99.90;;;;;;5004605;28;20049;-68
2023/11/17 11:36:10;;;;;;;1.88;1.13;;;7.30;99.90;;;;;;5036052;28;20040;-68
2023/11/17 11:38:40;;;;;;;1.35;0.57;;;7.30;99.90;;;;;;5006077;28;20052;-68
2023/11/17 11:41:15;;;;;;;2.58;0.57;;;7.30;99.90;;;;;;5005265;28;20038;-69
2023/11/17 11:43:54;;;;;;;0.80;0.68;;;7.30;99.90;;;;;;5002278;28;20052;-68
2023/11/17 11:46:24;;;;;;;0.90;0.65;;;7.30;99.90;;;;;;5000307;28;20045;-68
2023/11/17 11:48:55;;;;;;;3.75;1.20;;;7.40;99.90;;;;;;5006974;28;20590;-68
2023/11/17 11:51:24;;;;;;;2.05;1.00;;;7.40;99.90;;;;;;5002314;28;20045;-68
2023/11/17 11:53:55;;;;;;;4.00;1.42;;;7.40;99.90;;;;;;5037581;28;20368;-68
2023/11/17 11:56:32;;;;;;;1.65;1.02;;;7.40;99.90;;;;;;5003032;28;20088;-68
2023/11/17 11:58:59;;;;;;;2.47;0.98;;;7.40;99.90;;;;;;5004288;28;20498;-68
2023/11/17 12:01:32;;;;;;;1.67;1.08;;;7.40;99.90;;;;;;5002215;28;20042;-68
2023/11/17 12:04:00;;;;;;;1.98;0.88;;;7.40;99.90;;;;;;5035418;28;20045;-68
2023/11/17 12:06:27;;;;;;;1.63;0.95;;;7.50;99.90;;;;;;5001986;28;20073;-68
2023/11/17 12:08:58;;;;;;;2.47;1.33;;;7.50;99.90;;;;;;5002765;28;20082;-68
2023/11/17 12:11:32;;;;;;;2.17;1.15;;;7.50;99.90;;;;;;5002521;28;20137;-68
2023/11/17 12:13:58;;;;;;;0.82;0.63;;;7.50;99.90;;;;;;5001445;28;20045;-68
2023/11/17 12:16:30;;;;;;;3.80;1.17;;;7.50;99.90;;;;;;4991036;28;20050;-68
2023/11/17 12:18:58;;;;;;;1.02;0.70;;;7.50;99.90;;;;;;5033411;28;20034;-68
2023/11/17 12:21:25;;;;;;;1.98;1.10;;;7.50;99.90;;;;;;5001606;28;20050;-69
2023/11/17 12:23:57;;;;;;;1.95;1.15;;;7.50;99.90;;;;;;5003601;28;20048;-68
2023/11/17 12:26:27;;;;;;;6.47;1.50;;;7.60;99.90;;;;;;5031802;28;20485;-68
2023/11/17 12:28:55;;;;;;;6.03;1.75;;;7.60;99.90;;;;;;5004852;28;20050;-68
2023/11/17 12:31:21;;;;;;;3.92;1.40;;;7.60;99.90;;;;;;5005241;28;20046;-68
2023/11/17 12:33:50;;;;;;;1.77;1.10;;;7.60;99.90;;;;;;5003474;28;20113;-68
2023/11/17 12:36:18;;;;;;;2.13;1.50;;;7.70;99.90;;;;;;5033709;28;20073;-68
2023/11/17 12:38:49;;;;;;;2.08;0.95;;;7.70;99.90;;;;;;5000191;28;20045;-68
2023/11/17 12:41:16;;;;;;;1.30;0.95;;;7.70;99.90;;;;;;5033298;28;20045;-68
2023/11/17 12:43:47;;;;;;;5.78;1.17;;;7.70;99.90;;;;;;5002232;28;20037;-68
2023/11/17 12:46:14;;;;;;;3.08;1.48;;;7.70;99.90;;;;;;5031785;28;20057;-68
2023/11/17 12:48:41;;;;;;;2.10;1.10;;;7.70;99.90;;;;;;5000618;28;20046;-68
2023/11/17 12:51:07;;;;;;;10.35;1.35;;;7.70;99.90;;;;;;5036801;28;20128;-68
2023/11/17 12:53:41;;;;;;;1.42;1.02;;;7.70;99.90;;;;;;5000472;28;20046;-68
2023/11/17 12:56:08;;;;;;;2.83;1.10;;;7.70;99.90;;;;;;5035931;28;20044;-69
2023/11/17 12:58:35;;;;;;;3.28;1.67;;;7.60;99.90;;;;;;5005101;28;20053;-69
2023/11/17 13:01:16;;;;;;;1.00;0.80;;;7.70;99.90;;;;;;5008031;28;20042;-69